Date,TemperatureHighF,TemperatureAvgF,TemperatureLowF,DewpointHighF,DewpointAvgF,DewpointLowF,HumidityHigh,HumidityAvg,HumidityLow,PressureMaxIn,PressureMinIn,WindSpeedMaxMPH,WindSpeedAvgMPH,GustSpeedMaxMPH,PrecipitationSumIn
2013-1-1,43,42,38,43,37,26,100,84,52,30.15,29.98,5,0,6,0.55
2013-1-2,45,42,38,45,38,35,100,87,77,30.17,29.93,12,1,17,0.04
2013-1-3,41,38,33,39,34,25,97,86,67,30.31,30.10,13,2,18,0.01
2013-1-4,42,34,29,25,21,18,74,59,38,30.41,30.29,16,5,23,0.00
2013-1-5,46,37,26,33,23,19,85,57,34,30.43,30.25,14,2,22,0.02
2013-1-6,51,41,36,40,34,29,91,77,59,30.25,30.07,13,2,20,0.04
2013-1-7,49,38,26,31,27,23,91,67,38,30.44,30.22,17,2,25,0.00
2013-1-8,52,35,21,41,30,20,96,85,61,30.51,30.41,6,0,9,0.00
2013-1-9,55,48,41,52,47,38,100,94,89,30.48,30.40,2,0,4,0.01
2013-1-10,62,51,40,55,47,40,100,89,69,30.52,30.35,6,0,12,0.01
2013-1-11,53,50,47,53,49,46,100,98,89,30.36,30.14,8,0,13,0.18
2013-1-12,71,59,49,64,57,48,100,94,73,30.18,30.07,8,0,12,0.01
2013-1-13,66,60,48,59,56,47,100,89,73,30.09,30.02,20,3,28,0.01
2013-1-14,62,58,48,61,58,46,100,97,92,30.13,30.01,18,1,25,0.85
2013-1-15,52,48,43,52,48,43,100,99,93,30.12,30.04,4,1,6,0.38
2013-1-16,54,50,43,54,50,43,100,100,100,30.05,29.97,4,0,6,0.37
2013-1-17,52,45,34,52,44,31,100,98,89,30.19,29.77,16,2,21,1.68
2013-1-18,48,35,27,31,26,21,94,74,35,30.54,30.20,18,4,25,0.00
2013-1-19,52,36,22,33,27,21,97,74,39,30.52,30.22,10,1,15,0.00
2013-1-20,56,43,29,36,29,24,91,61,37,30.22,30.08,14,2,18,0.00
2013-1-21,52,38,25,33,24,14,96,63,36,30.12,29.99,16,3,24,0.00
2013-1-22,33,27,21,15,6,1,61,42,27,30.31,30.06,17,5,25,0.00
2013-1-23,44,31,22,24,16,4,81,54,41,30.39,30.12,9,1,12,0.00
2013-1-24,42,33,22,31,16,1,77,51,21,30.48,30.04,26,6,33,0.00
2013-1-25,33,25,19,32,17,5,96,75,48,30.51,30.15,6,1,12,0.00
2013-1-26,48,37,27,36,27,22,97,70,39,30.37,30.17,12,3,16,0.00
2013-1-27,39,32,23,31,26,21,96,80,64,30.57,30.36,12,1,14,0.00
2013-1-28,63,46,33,51,40,29,96,81,61,30.50,30.26,18,2,27,0.00
2013-1-29,68,53,36,58,48,35,100,87,64,30.26,30.02,16,2,23,0.11
2013-1-30,63,58,46,61,56,41,97,94,81,30.03,29.42,26,8,40,2.27
2013-1-31,46,36,28,41,25,19,86,66,44,30.05,29.50,19,5,26,0.00
2013-2-1,41,28,22,31,15,7,87,57,39,30.40,29.94,19,6,29,0.00
2013-2-2,39,30,19,34,20,10,92,68,35,30.41,30.08,10,1,14,0.00
2013-2-3,46,36,29,33,27,21,90,69,48,30.08,29.91,22,6,32,0.00
2013-2-4,49,36,28,30,23,19,77,61,38,30.17,30.02,12,2,16,0.00
2013-2-5,58,41,28,41,31,25,90,69,38,30.04,29.94,19,1,32,0.00
2013-2-6,58,43,29,34,30,27,96,64,32,30.25,30.03,11,1,16,0.00
2013-2-7,43,40,32,41,32,24,97,77,52,30.26,30.02,8,2,12,0.15
2013-2-8,51,42,35,46,37,28,100,83,53,30.16,29.94,20,3,29,0.00
2013-2-9,56,39,30,29,25,16,85,61,21,30.37,30.13,14,2,22,0.00
2013-2-10,49,39,30,41,31,23,97,74,43,30.44,30.19,11,1,16,0.34
2013-2-11,60,51,42,55,46,22,100,83,33,30.20,29.99,11,2,16,0.07
2013-2-12,52,46,40,38,28,19,93,53,29,30.11,29.93,19,3,28,0.08
2013-2-13,53,41,36,46,38,30,97,88,58,29.94,29.66,18,2,27,0.07
2013-2-14,50,39,30,36,30,26,91,72,46,30.09,29.91,18,2,25,0.00
2013-2-15,54,39,24,37,30,23,97,74,39,30.16,29.98,15,1,22,0.00
2013-2-16,36,31,23,27,21,10,87,67,47,30.05,29.87,21,6,33,0.00
2013-2-17,35,27,21,13,10,7,65,49,34,30.32,30.05,28,10,38,0.00
2013-2-18,50,34,17,27,20,12,90,59,38,30.43,30.23,13,2,16,0.00
2013-2-19,53,42,36,43,29,14,94,61,35,30.24,29.88,22,6,29,0.14
2013-2-20,47,37,30,16,9,4,49,33,19,30.16,30.04,20,7,27,0.00
2013-2-21,58,41,25,37,18,8,91,44,17,30.26,30.11,8,1,12,0.23
2013-2-22,39,36,34,38,35,32,97,94,87,30.29,30.12,8,0,12,0.38
2013-2-23,51,43,36,48,42,36,100,96,88,30.15,29.85,4,0,6,0.28
2013-2-24,56,46,39,42,32,24,97,61,32,30.05,29.87,15,3,20,0.00
2013-2-25,44,37,30,31,27,24,90,69,50,30.17,30.01,9,1,14,0.00
2013-2-26,43,35,32,39,33,30,100,94,80,30.07,29.63,12,1,16,0.53
2013-2-27,54,43,34,40,34,28,95,73,47,29.84,29.68,12,3,18,0.00
2013-2-28,41,36,32,34,27,24,83,69,55,29.94,29.73,15,5,22,0.00
2013-3-1,39,34,31,30,27,26,84,76,65,29.98,29.91,19,4,24,0.00
2013-3-2,39,33,27,30,26,19,91,74,55,29.98,29.88,15,5,25,0.00
2013-3-3,33,27,24,19,16,12,73,63,52,30.08,29.96,21,8,31,0.00
2013-3-4,52,36,25,28,18,12,78,51,26,30.21,30.06,19,3,29,0.00
2013-3-5,48,41,32,45,36,26,97,85,73,30.12,29.67,18,1,26,0.49
2013-3-6,36,30,27,30,24,20,87,78,67,30.19,29.69,28,10,36,0.00
2013-3-7,46,34,28,30,26,23,92,73,44,30.32,30.17,22,8,33,0.00
2013-3-8,50,38,28,28,24,21,80,60,39,30.36,30.27,18,7,23,0.00
2013-3-9,59,41,23,34,27,20,94,62,32,30.40,30.27,10,0,13,0.00
2013-3-10,60,48,32,37,34,28,91,62,38,30.31,30.18,11,1,14,0.00
2013-3-11,57,51,47,52,46,35,97,86,53,30.20,29.83,10,2,17,0.84
2013-3-12,53,47,41,52,40,30,100,77,46,30.03,29.75,18,5,25,0.37
2013-3-13,46,38,29,32,25,18,88,61,40,30.20,30.03,19,4,26,0.00
2013-3-14,46,34,25,20,16,11,68,50,29,30.34,30.19,17,5,26,0.00
2013-3-15,68,48,31,41,30,15,75,50,27,30.26,29.95,19,2,24,0.00
2013-3-16,76,61,46,48,44,40,80,54,30,29.95,29.73,20,4,26,0.00
2013-3-17,71,58,46,50,46,42,90,66,42,30.01,29.83,14,2,23,0.00
2013-3-18,46,40,37,42,38,36,97,95,86,30.06,29.88,6,1,9,0.53
2013-3-19,56,45,35,44,29,12,100,60,26,30.10,29.90,19,5,26,0.00
2013-3-20,53,42,31,30,15,10,91,35,21,30.12,29.84,21,3,28,0.00
2013-3-21,36,30,22,29,16,12,91,57,39,30.02,29.80,19,5,25,0.00
2013-3-22,49,36,24,28,19,12,77,50,33,30.11,30.01,10,1,16,0.00
2013-3-23,56,43,34,45,36,23,93,76,52,30.07,29.90,8,0,12,0.04
2013-3-24,44,41,37,41,39,36,97,94,88,29.95,29.55,14,2,17,0.57
2013-3-25,38,35,31,37,26,19,100,70,52,29.94,29.55,23,7,33,0.04
2013-3-26,39,32,28,27,24,22,80,72,57,30.24,29.94,20,7,30,0.00
2013-3-27,45,36,30,27,24,21,81,64,45,30.32,30.22,20,6,26,0.00
2013-3-28,51,39,31,25,22,19,69,51,30,30.35,30.25,17,4,21,0.00
2013-3-29,57,40,24,38,28,19,86,65,28,30.38,30.26,13,2,20,0.00
2013-3-30,60,48,40,46,41,38,100,77,47,30.26,30.07,10,1,15,0.15
2013-3-31,65,53,46,54,49,42,100,87,56,30.07,29.83,16,2,21,0.36
2013-4-1,63,53,39,52,42,34,97,68,42,29.99,29.85,20,3,29,0.00
2013-4-2,58,47,38,34,27,20,69,47,28,30.15,29.98,13,3,16,0.00
2013-4-3,58,48,38,30,24,19,53,38,27,30.27,30.14,11,1,16,0.00
2013-4-4,48,38,34,36,30,21,96,76,37,30.26,30.00,9,2,14,0.39
2013-4-5,57,46,37,45,39,35,97,78,49,30.10,29.95,15,4,22,0.00
2013-4-6,64,52,34,40,35,31,92,57,35,30.24,30.10,12,1,18,0.00
2013-4-7,66,53,36,47,42,34,94,66,48,30.22,30.10,14,3,23,0.00
2013-4-8,71,58,41,55,48,40,97,73,48,30.17,30.06,16,3,28,0.00
2013-4-9,78,63,46,58,53,44,97,72,47,30.19,30.08,14,2,20,0.00
2013-4-10,80,66,49,60,54,47,100,70,44,30.10,29.93,12,2,18,0.00
2013-4-11,74,66,54,64,57,51,94,74,53,29.95,29.67,18,4,30,0.24
2013-4-12,72,63,54,64,52,36,96,69,41,29.82,29.61,22,6,37,2.20
2013-4-13,70,58,49,42,38,32,67,48,26,30.03,29.81,18,4,23,0.00
2013-4-14,67,54,38,49,42,36,95,66,38,30.10,29.97,13,2,20,0.01
2013-4-15,63,56,52,58,54,49,97,91,79,30.20,29.97,8,1,13,0.11
2013-4-16,73,63,56,61,57,54,96,81,60,30.27,30.17,10,1,13,0.00
2013-4-17,75,62,54,65,58,53,100,91,66,30.24,30.12,9,0,13,0.48
2013-4-18,73,63,54,62,58,54,100,85,61,30.13,29.94,11,2,17,0.01
2013-4-19,65,63,62,63,61,60,96,93,87,29.93,29.72,18,6,29,0.76
2013-4-20,58,53,40,34,31,27,75,45,33,30.30,30.15,13,2,20,0.00
2013-4-21,59,46,32,40,34,30,97,67,41,30.45,30.30,14,2,21,0.00
2013-4-22,60,50,42,41,37,31,82,64,40,30.42,30.22,8,2,13,0.00
2013-4-23,68,51,33,49,40,31,97,70,43,30.29,30.12,11,1,13,0.00
2013-4-24,69,56,41,57,50,40,100,81,60,30.15,30.01,17,3,25,0.00
2013-4-25,67,54,42,50,34,16,85,53,15,30.32,30.08,13,2,18,0.00
2013-4-26,64,54,40,48,36,27,83,52,35,30.42,30.30,11,1,14,0.00
2013-4-27,55,52,50,51,49,44,97,89,78,30.37,30.25,4,0,6,0.84
2013-4-28,52,50,47,52,49,44,100,98,88,30.26,30.04,9,0,13,1.92
2013-4-29,67,58,51,61,55,51,100,89,71,30.08,29.93,10,1,15,0.06
2013-4-30,70,59,47,61,55,46,100,86,64,30.16,29.98,12,1,17,0.00
2013-5-1,62,58,55,55,53,51,93,85,75,30.26,30.15,9,2,14,0.00
2013-5-2,58,55,53,56,53,52,97,95,89,30.28,30.21,9,1,15,0.05
2013-5-3,58,54,51,54,51,49,97,91,83,30.23,30.08,9,2,14,0.08
2013-5-4,55,49,46,50,46,41,96,90,80,30.08,29.96,14,2,20,0.59
2013-5-5,53,49,46,53,48,45,100,97,95,30.00,29.83,13,4,18,2.21
2013-5-6,62,54,44,53,49,43,100,83,53,29.91,29.81,10,2,16,0.04
2013-5-7,62,50,40,53,47,39,100,90,57,29.97,29.87,6,0,14,0.18
2013-5-8,69,56,46,57,52,45,100,88,62,30.05,29.93,8,0,14,0.01
2013-5-9,75,60,46,61,54,45,100,83,50,30.11,30.02,11,1,17,0.01
2013-5-10,74,63,49,62,57,49,100,83,59,30.11,29.95,12,1,22,0.00
2013-5-11,74,63,53,64,58,51,97,85,64,29.97,29.78,14,0,20,0.34
2013-5-12,63,56,49,55,42,31,88,62,37,30.06,29.86,15,4,20,0.00
2013-5-13,62,51,41,39,33,29,88,51,31,30.21,30.06,13,2,18,0.00
2013-5-14,68,53,34,51,42,33,97,70,39,30.28,30.10,12,1,17,0.00
2013-5-15,84,68,49,64,56,48,96,68,41,30.10,29.94,16,1,27,0.00
2013-5-16,78,65,52,62,56,51,100,75,48,30.02,29.95,10,0,15,0.00
2013-5-17,78,65,52,63,58,51,100,79,53,30.09,30.00,11,1,18,0.00
2013-5-18,68,63,58,64,62,57,100,95,85,30.09,30.04,9,1,12,1.21
2013-5-19,72,66,60,68,64,59,100,93,81,30.09,29.98,11,1,16,0.20
2013-5-20,77,67,59,70,64,58,100,91,72,30.09,30.00,8,0,14,0.00
2013-5-21,82,69,56,70,64,56,100,85,52,30.04,29.91,8,0,13,0.00
2013-5-22,79,68,60,70,64,59,100,89,66,29.99,29.84,11,1,18,0.72
2013-5-23,79,68,61,65,61,54,100,81,52,29.92,29.82,15,1,23,0.08
2013-5-24,65,60,54,54,47,38,83,63,43,30.21,29.89,16,3,29,0.00
2013-5-25,74,59,47,46,38,31,75,49,23,30.32,30.19,11,2,17,0.00
2013-5-26,74,60,52,54,50,44,93,71,43,30.27,30.16,10,1,16,0.04
2013-5-27,77,62,47,60,54,47,100,77,49,30.27,30.14,10,1,15,0.00
2013-5-28,78,66,53,64,59,52,100,79,57,30.20,30.13,12,1,20,0.00
2013-5-29,79,68,54,66,60,53,100,80,56,30.22,30.13,8,0,12,0.00
2013-5-30,77,66,54,66,60,53,100,83,61,30.25,30.16,9,1,16,0.00
2013-5-31,79,69,59,65,62,58,100,81,57,30.20,30.09,12,1,18,0.00
2013-6-1,78,70,62,66,64,60,100,80,60,30.10,29.99,10,1,16,0.00
2013-6-2,72,67,63,69,65,63,100,95,84,30.03,29.89,10,0,14,1.23
2013-6-3,79,69,63,68,64,61,100,85,56,29.94,29.84,9,0,14,0.07
2013-6-4,76,68,57,67,63,56,100,84,67,30.06,29.93,9,0,15,0.00
2013-6-5,75,69,64,70,65,62,97,89,76,30.07,29.93,11,1,15,0.25
2013-6-6,74,68,65,69,66,64,100,94,82,29.96,29.77,6,0,12,0.09
2013-6-7,80,68,64,70,65,63,100,93,63,29.82,29.66,9,1,17,0.82
2013-6-8,78,68,60,69,65,60,100,90,61,30.08,29.81,7,0,12,0.39
2013-6-9,78,67,61,72,66,61,100,95,76,30.13,30.02,11,1,14,1.10
2013-6-10,76,69,64,68,66,62,100,90,66,30.03,29.87,11,1,16,1.20
2013-6-11,82,71,62,68,64,61,100,81,55,30.00,29.91,13,1,21,0.02
2013-6-12,88,75,61,75,68,60,100,81,55,30.01,29.90,8,0,13,0.00
2013-6-13,88,75,67,69,66,63,100,75,46,29.90,29.67,10,2,17,0.02
2013-6-14,77,69,58,64,57,54,93,69,46,30.03,29.78,11,1,20,0.00
2013-6-15,79,66,51,65,58,50,100,79,49,30.14,30.03,7,0,13,0.00
2013-6-16,80,69,56,68,62,55,100,82,59,30.13,30.01,6,0,10,0.00
2013-6-17,79,71,66,72,67,65,100,88,68,30.03,29.91,8,0,14,0.67
2013-6-18,79,69,63,71,66,61,100,90,68,29.94,29.78,7,1,16,0.11
2013-6-19,77,69,60,68,64,59,100,85,62,30.10,29.90,9,0,12,0.00
2013-6-20,76,69,62,68,65,61,100,88,68,30.21,30.09,11,1,15,0.00
2013-6-21,79,69,59,66,63,58,100,83,57,30.25,30.15,7,0,12,0.00
2013-6-22,80,68,56,65,61,56,100,79,48,30.23,30.10,6,0,12,0.00
2013-6-23,80,68,58,70,64,57,100,88,66,30.20,30.11,8,0,12,0.05
2013-6-24,81,72,63,73,68,63,100,89,65,30.20,30.07,10,0,13,0.08
2013-6-25,82,71,64,72,67,63,100,88,62,30.12,29.99,8,0,12,0.00
2013-6-26,82,71,62,74,68,62,100,91,66,30.03,29.89,6,0,12,0.17
2013-6-27,85,73,64,75,69,64,100,88,65,29.94,29.73,6,0,13,0.02
2013-6-28,86,75,67,73,68,64,96,81,50,29.79,29.58,12,1,17,0.29
2013-6-29,82,71,61,70,65,61,100,84,51,29.69,29.60,3,0,7,0.00
2013-6-30,80,70,60,71,65,60,100,85,56,29.80,29.68,10,1,13,0.15
2013-7-1,77,70,64,71,66,63,100,90,74,29.93,29.78,11,1,14,0.54
2013-7-2,77,70,65,72,68,65,100,93,79,30.11,29.93,8,1,13,0.24
2013-7-3,74,68,62,72,67,62,100,96,86,30.20,30.07,13,1,20,1.96
2013-7-4,73,66,62,71,66,62,100,98,91,30.22,30.12,12,0,16,2.14
2013-7-5,80,70,66,70,68,65,100,92,68,30.23,30.16,16,1,23,0.23
2013-7-6,79,71,67,72,69,66,100,93,75,30.20,30.08,12,1,17,0.86
2013-7-7,79,73,67,73,70,66,100,91,77,30.14,30.05,6,1,13,0.44
2013-7-8,83,73,67,73,69,66,100,88,60,30.17,30.07,7,0,12,1.66
2013-7-9,84,74,66,75,70,66,100,89,64,30.15,30.03,12,1,23,0.17
2013-7-10,81,71,66,76,70,66,100,95,75,30.12,29.93,11,0,15,2.29
2013-7-11,79,71,67,73,69,67,100,93,77,29.95,29.86,4,0,9,0.00
2013-7-12,80,70,63,73,68,62,100,93,67,29.99,29.86,9,0,14,0.31
2013-7-13,74,67,62,69,66,61,100,95,80,30.10,29.98,2,0,7,0.02
2013-7-14,74,70,66,72,68,65,100,96,87,30.26,30.08,15,1,20,1.71
2013-7-15,81,73,67,72,69,67,100,88,68,30.32,30.24,7,0,12,0.00
2013-7-16,85,75,65,75,70,65,100,86,62,30.31,30.21,9,0,13,0.00
2013-7-17,88,73,66,75,69,66,100,89,59,30.26,30.12,7,0,14,0.10
2013-7-18,84,74,66,74,70,66,100,88,66,30.18,30.05,7,0,12,0.00
2013-7-19,85,75,66,74,70,66,100,87,58,30.10,29.96,7,0,12,0.00
2013-7-20,84,72,67,74,70,67,100,94,64,30.01,29.91,6,0,13,0.74
2013-7-21,84,72,67,75,70,67,100,92,66,29.99,29.92,8,0,13,0.37
2013-7-22,82,72,66,74,69,66,100,93,70,29.99,29.82,9,0,17,0.96
2013-7-23,83,73,66,73,68,64,97,84,58,29.88,29.76,11,1,15,0.02
2013-7-24,84,74,66,72,67,64,100,82,55,29.83,29.75,8,1,13,0.00
2013-7-25,81,71,64,72,67,63,100,87,68,30.01,29.82,8,0,13,0.00
2013-7-26,79,70,62,71,66,61,100,89,73,30.08,29.99,9,1,14,0.02
2013-7-27,77,72,67,73,70,66,100,91,83,29.97,29.87,8,1,13,2.16
2013-7-28,80,71,64,72,67,63,100,88,68,30.00,29.89,7,0,12,0.01
2013-7-29,82,69,59,70,63,58,100,83,50,30.17,30.00,4,0,6,0.00
2013-7-30,78,69,58,70,65,57,100,87,72,30.21,30.13,7,0,12,0.00
2013-7-31,75,69,64,71,67,63,97,93,81,30.17,29.95,8,0,13,0.16
2013-8-1,82,72,65,74,68,64,100,88,64,29.98,29.88,7,0,12,0.11
2013-8-2,81,72,63,71,67,62,97,86,67,30.02,29.92,5,0,12,0.00
2013-8-3,81,72,64,70,67,64,100,84,61,30.02,29.94,6,0,14,0.00
2013-8-4,80,72,63,69,65,60,97,81,57,30.02,29.94,12,1,17,0.00
2013-8-5,80,70,60,70,65,59,100,86,69,30.06,29.95,10,1,15,0.01
2013-8-6,79,72,67,72,69,66,97,90,75,30.02,29.93,9,1,15,0.03
2013-8-7,74,70,69,72,69,68,100,96,91,30.05,29.98,6,0,10,1.23
2013-8-8,80,72,67,74,70,67,100,93,81,30.04,29.98,8,0,13,0.00
2013-8-9,84,74,67,74,70,66,100,91,70,30.06,30.00,4,0,9,0.15
2013-8-10,84,72,67,76,70,66,100,93,68,30.10,30.04,9,0,14,1.35
2013-8-11,83,72,66,74,70,66,100,93,70,30.13,30.04,4,0,10,0.08
2013-8-12,83,72,65,74,69,65,100,91,67,30.08,29.96,12,0,16,0.14
2013-8-13,84,72,67,74,69,66,100,91,68,29.97,29.81,9,0,20,0.04
2013-8-14,78,69,64,67,64,58,95,83,55,30.05,29.87,10,1,15,0.00
2013-8-15,66,62,57,62,58,55,95,87,74,30.14,30.03,3,0,9,0.00
2013-8-16,70,62,56,63,59,55,97,88,74,30.16,30.08,7,0,14,0.00
2013-8-17,67,62,58,61,59,55,97,90,80,30.18,30.12,2,0,4,0.16
2013-8-18,75,66,61,70,64,60,100,94,78,30.22,30.12,8,0,12,0.17
2013-8-19,73,67,64,69,66,63,100,95,84,30.19,30.08,6,0,9,0.79
2013-8-20,75,68,63,70,66,63,100,94,80,30.19,30.10,3,0,6,0.00
2013-8-21,76,68,64,72,67,64,100,95,86,30.23,30.11,4,0,7,0.18
2013-8-22,83,72,64,72,68,63,100,89,60,30.17,30.02,6,0,12,0.00
2013-8-23,83,71,62,71,66,61,100,87,63,30.06,29.96,10,1,13,0.00
2013-8-24,76,68,58,66,62,56,97,83,61,30.29,30.06,8,0,13,0.00
2013-8-25,75,63,52,64,58,51,100,85,60,30.39,30.28,8,0,13,0.00
2013-8-26,80,66,54,68,61,53,100,85,58,30.34,30.13,7,0,12,0.00
2013-8-27,81,69,58,72,64,57,100,87,64,30.16,30.01,9,0,12,0.00
2013-8-28,84,74,65,72,68,64,97,83,62,30.05,29.92,8,0,12,0.00
2013-8-29,86,77,70,73,70,66,93,80,62,29.97,29.88,10,1,18,0.68
2013-8-30,78,72,69,72,69,67,97,92,78,30.02,29.92,5,0,10,0.51
2013-8-31,84,72,65,74,69,64,100,91,68,29.95,29.87,7,0,13,0.02
2013-9-1,84,70,64,76,68,63,100,93,70,29.91,29.78,18,0,30,0.85
2013-9-2,83,72,64,73,68,64,100,90,68,29.91,29.81,5,0,9,0.00
2013-9-3,81,70,63,70,64,61,100,83,58,29.98,29.81,13,1,20,0.09
2013-9-4,82,69,59,70,64,58,100,87,65,30.10,29.98,5,0,7,0.00
2013-9-5,82,69,59,68,63,56,100,83,45,30.12,30.05,4,0,9,0.00
2013-9-6,77,65,55,66,60,54,100,86,64,30.19,30.08,7,0,12,0.00
2013-9-7,80,66,57,69,62,56,100,87,60,30.14,30.00,5,0,9,0.00
2013-9-8,79,68,59,70,64,58,100,88,66,30.02,29.93,7,0,12,0.00
2013-9-9,82,70,61,71,66,60,100,87,66,30.14,30.01,9,1,14,0.00
2013-9-10,82,69,59,71,65,58,100,87,59,30.24,30.14,6,0,12,0.00
2013-9-11,81,70,61,73,66,60,100,90,69,30.23,30.09,5,0,9,0.00
2013-9-12,82,71,63,71,67,62,100,88,65,30.10,29.85,12,0,20,0.00
2013-9-13,76,68,60,64,59,50,90,74,52,29.90,29.80,11,1,20,0.00
2013-9-14,71,59,49,59,53,48,97,81,58,30.14,29.90,8,0,12,0.00
2013-9-15,74,61,49,64,57,48,100,87,67,30.23,30.13,12,0,14,0.00
2013-9-16,79,65,54,66,59,53,100,84,51,30.17,30.08,9,0,13,0.00
2013-9-17,68,63,59,63,57,54,92,82,68,30.27,30.16,6,0,9,0.00
2013-9-18,65,60,56,60,57,53,95,88,76,30.29,30.17,4,0,7,0.00
2013-9-19,77,65,58,68,62,57,97,90,70,30.20,30.08,8,0,12,0.00
2013-9-20,81,67,57,69,63,56,100,87,56,30.09,29.92,7,0,12,0.00
2013-9-21,67,62,57,66,61,57,100,96,94,29.93,29.70,7,0,14,1.57
2013-9-22,72,62,55,60,56,53,100,82,55,29.92,29.74,9,1,16,0.00
2013-9-23,70,61,54,62,57,53,100,88,70,30.06,29.92,8,0,12,0.00
2013-9-24,71,62,52,64,58,51,100,89,69,30.07,29.94,6,0,10,0.00
2013-9-25,61,60,58,60,59,57,97,97,96,29.94,29.87,5,0,9,1.04
2013-9-26,69,61,52,62,58,51,100,91,75,30.06,29.89,2,0,4,0.00
2013-9-27,71,59,46,61,54,46,100,86,64,30.19,30.06,9,0,12,0.00
2013-9-28,67,60,56,58,56,52,94,86,72,30.24,30.15,5,0,10,0.00
2013-9-29,68,59,52,59,55,50,96,87,67,30.18,30.04,6,0,9,0.00
2013-9-30,70,60,50,61,56,48,100,88,66,30.11,30.01,4,0,7,0.00
2013-10-1,76,61,50,63,57,49,100,87,57,30.18,30.06,5,0,10,0.00
2013-10-2,76,63,53,65,59,52,100,87,59,30.18,30.08,4,0,9,0.00
2013-10-3,77,64,56,65,60,55,100,87,62,30.14,30.06,10,0,13,0.00
2013-10-4,78,64,54,67,60,52,100,88,64,30.17,30.09,3,0,5,0.00
2013-10-5,80,65,56,70,61,55,100,87,56,30.16,30.04,6,0,10,0.00
2013-10-6,76,64,53,68,60,52,100,89,67,30.07,29.88,11,0,15,0.00
2013-10-7,64,61,54,63,57,50,100,88,68,30.02,29.80,11,1,17,1.42
2013-10-8,66,55,45,54,49,44,97,82,59,30.22,30.01,10,1,13,0.01
2013-10-9,69,54,44,52,46,42,95,77,48,30.25,30.13,5,0,7,0.00
2013-10-10,70,56,41,57,49,40,100,81,56,30.17,30.04,10,1,17,0.00
2013-10-11,73,61,50,58,54,48,95,78,52,30.04,29.95,11,1,17,0.00
2013-10-12,71,61,50,61,56,49,97,85,67,30.10,29.99,9,0,14,0.00
2013-10-13,71,63,58,64,60,57,97,91,72,30.21,30.10,3,0,9,0.00
2013-10-14,65,61,57,61,59,55,97,93,86,30.23,30.14,4,0,6,0.01
2013-10-15,64,58,53,59,56,52,96,91,82,30.19,30.07,2,0,6,0.00
2013-10-16,66,57,46,59,54,45,100,90,74,30.10,29.98,3,0,6,0.00
2013-10-17,67,61,57,64,59,55,100,95,88,29.99,29.84,8,0,13,0.07
2013-10-18,66,56,47,58,52,45,96,85,68,30.03,29.91,8,0,12,0.00
2013-10-19,62,55,46,57,51,44,100,89,69,29.98,29.85,4,0,7,0.01
2013-10-20,62,49,40,49,43,38,96,81,52,30.12,29.96,6,0,12,0.00
2013-10-21,63,48,35,54,45,34,100,89,69,30.18,30.04,9,0,16,0.00
2013-10-22,68,56,48,56,51,46,100,86,55,30.06,29.81,5,0,9,0.01
2013-10-23,56,47,38,47,38,30,97,74,46,30.05,29.75,15,2,25,0.00
2013-10-24,55,44,34,40,34,28,88,70,51,30.20,30.04,9,1,17,0.00
2013-10-25,47,38,28,37,29,24,92,71,48,30.41,30.20,16,2,23,0.00
2013-10-26,54,37,22,38,30,21,97,79,48,30.40,30.14,6,0,13,0.00
2013-10-27,64,53,40,50,45,37,95,75,55,30.15,30.08,7,0,17,0.00
2013-10-28,63,52,43,55,49,42,100,90,67,30.28,30.11,2,0,5,0.04
2013-10-29,69,54,42,56,49,41,100,86,50,30.36,30.25,6,0,12,0.00
2013-10-30,74,58,49,60,53,47,100,85,56,30.30,30.17,6,0,10,0.00
2013-10-31,64,57,48,61,54,47,100,90,78,30.19,29.88,8,1,16,0.03
2013-11-1,71,62,50,62,58,47,95,87,63,29.88,29.63,12,2,24,0.08
2013-11-2,61,52,46,47,42,37,89,69,52,30.01,29.74,16,1,22,0.00
2013-11-3,57,46,33,40,37,31,100,73,39,30.40,30.00,9,1,16,0.00
2013-11-4,53,40,29,38,32,28,97,76,44,30.55,30.38,10,0,15,0.00
2013-11-5,56,42,30,42,34,28,95,78,41,30.58,30.47,9,0,12,0.00
2013-11-6,64,53,45,54,49,42,96,87,67,30.47,30.15,6,0,12,0.00
2013-11-7,60,50,41,57,44,32,100,81,56,30.18,30.01,14,2,23,0.02
2013-11-8,52,41,28,32,26,19,88,59,29,30.36,30.17,15,3,24,0.00
2013-11-9,55,40,24,38,30,22,95,71,39,30.42,30.25,7,0,13,0.00
2013-11-10,64,52,41,39,33,26,78,49,31,30.29,30.18,13,2,23,0.00
2013-11-11,59,44,28,32,28,24,92,57,33,30.35,30.19,6,0,15,0.00
2013-11-12,54,40,25,39,28,14,91,63,40,30.48,30.11,17,2,27,0.00
2013-11-13,43,30,22,20,17,14,85,60,36,30.59,30.46,12,1,17,0.00
2013-11-14,58,34,18,26,20,15,93,63,21,30.55,30.39,6,0,12,0.00
2013-11-15,54,41,24,49,37,20,96,87,73,30.40,30.25,6,0,12,0.10
2013-11-16,62,52,48,55,50,46,97,93,77,30.28,30.18,6,0,10,0.00
2013-11-17,59,55,52,56,54,51,97,95,90,30.22,29.89,8,0,12,0.33
2013-11-18,64,56,46,59,42,30,100,63,39,30.02,29.85,19,3,27,0.00
2013-11-19,53,44,36,32,28,24,74,53,38,30.27,30.00,16,1,27,0.00
2013-11-20,47,40,33,31,28,26,76,62,45,30.47,30.26,9,1,13,0.00
2013-11-21,48,44,39,46,40,30,96,84,68,30.51,30.40,4,0,5,0.10
2013-11-22,67,55,47,60,53,46,100,94,78,30.42,30.13,6,0,12,0.07
2013-11-23,58,48,33,54,40,20,91,77,56,30.23,30.09,13,2,27,0.00
2013-11-24,34,27,19,20,13,9,82,57,39,30.56,30.23,16,2,27,0.00
2013-11-25,37,27,17,25,14,8,91,62,34,30.60,30.37,6,0,10,0.00
2013-11-26,45,38,30,44,37,23,97,93,73,30.39,29.69,11,0,16,2.03
2013-11-27,45,31,24,43,26,15,94,81,69,30.24,29.61,20,4,30,0.03
2013-11-28,48,30,20,24,19,14,91,67,31,30.53,30.23,18,1,24,0.04
2013-11-29,54,35,22,30,24,20,100,69,36,30.64,30.51,6,0,10,0.00
2013-11-30,44,32,24,26,24,21,90,73,44,30.65,30.42,6,0,9,0.00
2013-12-1,58,36,23,40,30,21,94,80,47,30.42,30.08,7,0,12,0.00
2013-12-2,54,41,26,41,35,25,96,81,58,30.08,29.86,6,0,9,0.00
2013-12-3,58,48,41,50,45,38,96,89,74,29.97,29.88,8,0,15,0.00
2013-12-4,59,54,49,56,52,48,100,95,86,30.07,29.94,9,1,15,0.02
2013-12-5,65,59,52,64,58,51,100,96,88,30.10,29.98,10,1,13,0.52
2013-12-6,68,64,54,64,62,53,97,91,84,30.02,29.92,15,3,24,0.61
2013-12-7,54,47,43,53,44,40,96,88,75,30.37,29.97,11,2,20,0.01
2013-12-8,43,36,33,40,35,32,96,95,88,30.37,30.26,7,1,10,0.19
2013-12-9,54,44,34,54,44,33,100,98,96,30.27,30.06,3,0,5,0.93
2013-12-10,49,41,31,47,35,19,97,81,61,30.34,29.90,20,2,34,0.26
2013-12-11,51,36,24,28,21,16,87,58,27,30.48,30.33,8,1,14,0.00
2013-12-12,40,33,26,22,15,6,72,50,27,30.46,30.33,14,2,22,0.00
2013-12-13,48,33,20,30,20,14,85,60,32,30.43,30.30,5,0,6,0.00
2013-12-14,40,37,34,39,34,29,100,89,66,30.32,29.82,7,0,9,0.65
2013-12-15,42,36,30,42,32,26,97,83,72,30.15,29.79,16,3,25,0.00
2013-12-16,56,38,24,33,28,22,95,71,34,30.25,30.15,10,1,14,0.00
2013-12-17,61,43,26,36,29,23,95,63,32,30.20,29.98,18,2,28,0.00
2013-12-18,47,35,26,23,18,11,79,51,24,30.35,30.10,20,2,28,0.00
2013-12-19,63,40,22,35,25,19,89,60,27,30.39,30.27,12,1,18,0.00
2013-12-20,62,49,33,50,36,26,87,67,27,30.28,30.14,11,1,17,0.00
2013-12-21,63,58,50,61,55,48,96,91,82,30.16,29.98,10,1,18,0.27
2013-12-22,64,59,55,62,58,55,100,96,90,30.05,29.94,15,2,30,2.67
2013-12-23,56,48,35,56,46,31,100,90,81,30.20,29.98,14,2,21,0.32
2013-12-24,35,30,22,31,23,16,85,74,59,30.47,30.18,16,3,23,0.00
2013-12-25,36,25,16,22,16,11,93,71,40,30.58,30.45,7,0,12,0.00
2013-12-26,49,32,19,28,22,16,100,71,38,30.45,30.33,14,1,17,0.00
2013-12-27,51,32,20,31,23,19,95,73,32,30.53,30.42,6,0,10,0.00
2013-12-28,44,32,20,38,29,19,95,88,64,30.49,30.18,4,0,5,0.29
2013-12-29,53,43,38,47,39,33,97,86,70,30.17,29.84,13,2,20,0.73
2013-12-30,46,42,35,39,36,29,92,80,70,30.15,29.99,10,1,17,0.00
2013-12-31,41,35,26,29,21,15,83,59,37,30.42,30.14,18,2,23,0.00
2014-1-1,44,33,24,30,26,21,92,77,54,30.44,30.19,8,0,12,0.00
2014-1-2,46,34,20,46,32,14,100,90,70,30.19,29.71,25,3,37,0.10